createdAt,value
2019-02-12T00:01:07.832Z,3.70
2019-02-12T00:02:17.256Z,3.70
2019-02-12T00:03:22.467Z,3.70
2019-02-12T00:04:30.211Z,3.60
2019-02-12T00:05:34.853Z,3.60
2019-02-12T00:06:40.999Z,3.50
2019-02-12T00:07:53.156Z,3.50
2019-02-12T00:09:06.240Z,3.50
2019-02-12T00:10:12.469Z,3.40
2019-02-12T00:11:18.578Z,3.40
2019-02-12T00:12:33.073Z,3.30
2019-02-12T00:13:37.445Z,3.30
2019-02-12T00:14:41.904Z,3.30
2019-02-12T00:16:10.111Z,3.30
2019-02-12T00:16:58.286Z,3.20
2019-02-12T00:18:02.913Z,3.20
2019-02-12T00:19:07.328Z,3.10
2019-02-12T00:20:14.078Z,3.10
2019-02-12T00:21:22.226Z,2.90
2019-02-12T00:22:29.280Z,2.90
2019-02-12T00:23:39.311Z,2.80
2019-02-12T00:24:45.247Z,2.70
2019-02-12T00:25:53.204Z,2.60
2019-02-12T00:26:57.683Z,2.50
2019-02-12T00:28:04.221Z,2.50
2019-02-12T00:29:08.637Z,2.40
2019-02-12T00:30:17.600Z,2.30
2019-02-12T00:31:28.156Z,2.20
2019-02-12T00:32:35.265Z,2.20
2019-02-12T00:33:39.828Z,2.20
2019-02-12T00:34:48.003Z,2.10
2019-02-12T00:35:55.674Z,2.10
2019-02-12T00:37:00.264Z,1.90
2019-02-12T00:38:06.288Z,2.00
2019-02-12T00:39:10.826Z,1.90
2019-02-12T00:40:16.711Z,1.80
2019-02-12T00:41:27.036Z,1.80
2019-02-12T00:42:31.663Z,1.70
2019-02-12T00:43:43.904Z,1.70
2019-02-12T00:44:50.416Z,1.80
2019-02-12T00:45:55.314Z,1.80
2019-02-12T00:46:59.736Z,1.80
2019-02-12T00:48:09.045Z,1.80
2019-02-12T00:49:13.704Z,1.90
2019-02-12T00:50:20.727Z,1.90
2019-02-12T00:51:29.319Z,2.10
2019-02-12T00:52:35.251Z,2.10
2019-02-12T00:53:42.854Z,2.20
2019-02-12T00:54:50.336Z,2.30
2019-02-12T00:55:55.091Z,2.30
2019-02-12T00:56:59.411Z,2.40
2019-02-12T00:58:04.955Z,2.40
2019-02-12T00:59:10.837Z,2.40
2019-02-12T01:00:15.423Z,2.50
2019-02-12T01:01:20.038Z,2.50
2019-02-12T01:02:25.759Z,2.60
2019-02-12T01:03:31.974Z,2.60
2019-02-12T01:04:36.346Z,2.60
2019-02-12T01:05:40.889Z,2.70
2019-02-12T01:06:45.549Z,2.70
2019-02-12T01:07:49.948Z,2.70
2019-02-12T01:08:57.828Z,2.70
2019-02-12T01:10:02.453Z,2.80
2019-02-12T01:11:09.526Z,2.80
2019-02-12T01:12:15.496Z,2.80
2019-02-12T01:13:21.972Z,2.90
2019-02-12T01:14:26.476Z,2.90
2019-02-12T01:15:35.668Z,2.90
2019-02-12T01:16:41.252Z,2.80
2019-02-12T01:17:49.096Z,2.80
2019-02-12T01:18:55.606Z,2.80
2019-02-12T01:20:00.250Z,2.90
2019-02-12T01:21:07.139Z,2.90
2019-02-12T01:22:12.710Z,2.90
2019-02-12T01:23:26.682Z,2.90
2019-02-12T01:24:33.747Z,3.00
2019-02-12T01:25:40.616Z,3.00
2019-02-12T01:26:47.994Z,3.00
2019-02-12T01:27:52.614Z,3.00
2019-02-12T01:29:01.841Z,3.00
2019-02-12T01:30:09.093Z,3.10
2019-02-12T01:31:18.344Z,3.10
2019-02-12T01:32:27.154Z,3.10
2019-02-12T01:33:33.529Z,3.10
2019-02-12T01:34:37.979Z,3.20
2019-02-12T01:35:47.666Z,3.20
2019-02-12T01:36:54.924Z,3.10
2019-02-12T01:38:06.504Z,3.20
2019-02-12T01:39:12.561Z,3.10
2019-02-12T01:40:17.171Z,3.10
2019-02-12T01:41:26.874Z,3.20
2019-02-12T01:42:31.692Z,3.10
2019-02-12T01:43:38.824Z,3.10
2019-02-12T01:44:43.309Z,3.10
2019-02-12T01:45:53.458Z,3.20
2019-02-12T01:47:05.290Z,3.20
2019-02-12T01:48:09.689Z,3.20
2019-02-12T01:49:14.372Z,3.10
2019-02-12T01:50:26.060Z,3.20
2019-02-12T01:51:35.155Z,3.20
2019-02-12T01:52:38.456Z,3.10
2019-02-12T01:53:46.608Z,3.10
2019-02-12T01:54:52.100Z,3.10
2019-02-12T01:55:57.780Z,3.20
2019-02-12T01:57:02.156Z,3.20
2019-02-12T01:58:06.584Z,3.20
2019-02-12T01:59:12.658Z,3.10
2019-02-12T02:00:17.515Z,3.10
2019-02-12T02:01:24.092Z,3.00
2019-02-12T02:02:28.887Z,3.00
2019-02-12T02:03:34.722Z,3.00
2019-02-12T02:04:41.186Z,3.00
2019-02-12T02:05:48.180Z,3.00
2019-02-12T02:06:54.387Z,3.00
2019-02-12T02:07:59.246Z,3.00
2019-02-12T02:09:06.465Z,3.00
2019-02-12T02:10:13.225Z,3.00
2019-02-12T02:11:17.830Z,3.00
2019-02-12T02:12:22.642Z,3.00
2019-02-12T02:13:27.186Z,3.10
2019-02-12T02:14:31.884Z,3.10
2019-02-12T02:15:40.172Z,3.10
2019-02-12T02:16:44.634Z,3.10
2019-02-12T02:17:49.261Z,3.10
2019-02-12T02:18:53.670Z,3.10
2019-02-12T02:20:00.862Z,3.10
2019-02-12T02:21:08.953Z,3.00
2019-02-12T02:22:15.248Z,3.10
2019-02-12T02:23:28.938Z,3.10
2019-02-12T02:24:33.409Z,3.10
2019-02-12T02:25:37.806Z,3.10
2019-02-12T02:26:44.213Z,3.10
2019-02-12T02:27:49.208Z,3.20
2019-02-12T02:28:55.732Z,3.20
2019-02-12T02:30:00.351Z,3.20
2019-02-12T02:31:04.911Z,3.20
2019-02-12T02:32:13.877Z,3.20
2019-02-12T02:33:21.109Z,3.20
2019-02-12T02:34:28.051Z,3.20
2019-02-12T02:35:32.461Z,3.20
2019-02-12T02:36:40.826Z,3.20
2019-02-12T02:37:49.098Z,3.10
2019-02-12T02:38:53.418Z,3.10
2019-02-12T02:40:00.947Z,3.10
2019-02-12T02:41:07.324Z,3.10
2019-02-12T02:42:11.496Z,3.10
2019-02-12T02:43:18.622Z,3.20
2019-02-12T02:44:27.361Z,3.20
2019-02-12T02:45:30.444Z,3.30
2019-02-12T02:46:37.020Z,3.20
2019-02-12T02:47:42.577Z,3.20
2019-02-12T02:48:51.031Z,3.20
2019-02-12T02:49:55.760Z,3.10
2019-02-12T02:51:00.073Z,3.10
2019-02-12T02:52:04.497Z,3.10
2019-02-12T02:53:08.883Z,3.10
2019-02-12T02:54:17.714Z,3.10
2019-02-12T02:55:24.476Z,3.10
2019-02-12T02:56:32.838Z,3.10
2019-02-12T02:57:37.179Z,3.20
2019-02-12T02:58:44.015Z,3.20
2019-02-12T02:59:49.453Z,3.20
2019-02-12T03:00:55.585Z,3.20
2019-02-12T03:02:01.904Z,3.20
2019-02-12T03:03:09.825Z,3.10
2019-02-12T03:04:18.777Z,3.10
2019-02-12T03:05:20.706Z,3.10
2019-02-12T03:06:26.641Z,3.10
2019-02-12T03:07:32.365Z,3.10
2019-02-12T03:08:36.720Z,3.00
2019-02-12T03:09:44.761Z,3.00
2019-02-12T03:10:52.298Z,2.90
2019-02-12T03:12:01.021Z,2.90
2019-02-12T03:13:07.310Z,2.80
2019-02-12T03:14:15.492Z,2.80
2019-02-12T03:15:20.002Z,2.70
2019-02-12T03:16:26.133Z,2.70
2019-02-12T03:17:32.507Z,2.60
2019-02-12T03:18:36.853Z,2.70
2019-02-12T03:19:45.913Z,2.60
2019-02-12T03:20:51.750Z,2.50
2019-02-12T03:22:03.466Z,2.40
2019-02-12T03:23:02.697Z,2.30
2019-02-12T03:24:12.373Z,2.20
2019-02-12T03:25:22.836Z,2.20
2019-02-12T03:26:34.964Z,2.10
2019-02-12T03:27:39.374Z,2.10
2019-02-12T03:28:45.251Z,2.00
2019-02-12T03:29:49.619Z,2.00
2019-02-12T03:30:54.018Z,1.90
2019-02-12T03:32:01.379Z,1.90
2019-02-12T03:33:05.807Z,1.80
2019-02-12T03:34:13.601Z,1.80
2019-02-12T03:35:18.080Z,1.80
2019-02-12T03:36:29.866Z,1.70
2019-02-12T03:37:36.074Z,1.60
2019-02-12T03:38:40.404Z,1.60
2019-02-12T03:39:45.954Z,1.60
2019-02-12T03:40:53.403Z,1.50
2019-02-12T03:42:00.965Z,1.50
2019-02-12T03:43:05.354Z,1.50
2019-02-12T03:44:12.084Z,1.60
2019-02-12T03:45:16.190Z,1.60
2019-02-12T03:46:20.574Z,1.60
2019-02-12T03:47:34.377Z,1.60
2019-02-12T03:48:43.217Z,1.70
2019-02-12T03:49:47.809Z,1.70
2019-02-12T03:50:53.921Z,1.60
2019-02-12T03:51:59.342Z,1.60
2019-02-12T03:53:03.728Z,1.60
2019-02-12T03:54:10.301Z,1.60
2019-02-12T03:55:14.654Z,1.60
2019-02-12T03:56:19.014Z,1.60
2019-02-12T03:57:26.189Z,1.50
2019-02-12T03:58:35.900Z,1.50
2019-02-12T03:59:41.782Z,1.40
2019-02-12T04:00:46.241Z,1.40
2019-02-12T04:01:51.921Z,1.40
2019-02-12T04:03:04.263Z,1.40
2019-02-12T04:04:08.772Z,1.50
2019-02-12T04:05:19.647Z,1.50
2019-02-12T04:06:26.653Z,1.50
2019-02-12T04:07:48.756Z,1.50
2019-02-12T04:08:54.325Z,1.40
2019-02-12T04:09:58.682Z,1.40
2019-02-12T04:11:03.280Z,1.40
2019-02-12T04:12:13.072Z,1.40
2019-02-12T04:13:20.822Z,1.40
2019-02-12T04:14:31.205Z,1.40
2019-02-12T04:15:40.129Z,1.50
2019-02-12T04:16:46.881Z,1.50
2019-02-12T04:17:52.988Z,1.60
2019-02-12T04:19:05.940Z,1.70
2019-02-12T04:20:15.740Z,1.70
2019-02-12T04:21:20.305Z,1.80
2019-02-12T04:22:25.027Z,1.80
2019-02-12T04:23:29.376Z,1.80
2019-02-12T04:24:33.742Z,1.80
2019-02-12T04:25:38.064Z,1.80
2019-02-12T04:26:47.685Z,1.80
2019-02-12T04:27:55.535Z,1.80
2019-02-12T04:29:02.429Z,1.70
2019-02-12T04:30:08.658Z,1.70
2019-02-12T04:31:13.035Z,1.70
2019-02-12T04:32:17.388Z,1.70
2019-02-12T04:33:24.132Z,1.70
2019-02-12T04:34:29.609Z,1.60
2019-02-12T04:35:33.948Z,1.60
2019-02-12T04:36:38.363Z,1.60
2019-02-12T04:37:45.057Z,1.50
2019-02-12T04:38:49.478Z,1.50
2019-02-12T04:39:53.857Z,1.50
2019-02-12T04:41:00.229Z,1.50
2019-02-12T04:42:07.543Z,1.50
2019-02-12T04:43:14.640Z,1.50
2019-02-12T04:44:22.087Z,1.50
2019-02-12T04:45:26.490Z,1.40
2019-02-12T04:46:34.173Z,1.40
2019-02-12T04:47:40.333Z,1.40
2019-02-12T04:48:44.765Z,1.30
2019-02-12T04:49:49.162Z,1.30
2019-02-12T04:50:53.587Z,1.30
2019-02-12T04:51:58.006Z,1.30
2019-02-12T04:53:04.336Z,1.40
2019-02-12T04:54:11.008Z,1.40
2019-02-12T04:55:16.776Z,1.40
2019-02-12T04:56:24.600Z,1.30
2019-02-12T04:57:30.206Z,1.30
2019-02-12T04:58:36.880Z,1.30
2019-02-12T04:59:43.263Z,1.20
2019-02-12T05:00:47.631Z,1.20
2019-02-12T05:01:58.654Z,1.20
2019-02-12T05:03:03.033Z,1.20
2019-02-12T05:04:07.471Z,1.20
2019-02-12T05:05:12.102Z,1.20
2019-02-12T05:06:20.947Z,1.20
2019-02-12T05:07:25.284Z,1.20
2019-02-12T05:09:04.417Z,1.10
2019-02-12T05:10:11.398Z,1.10
2019-02-12T05:11:15.839Z,1.20
2019-02-12T05:12:23.780Z,1.20
2019-02-12T05:13:28.210Z,1.20
2019-02-12T05:14:32.604Z,1.20
2019-02-12T05:15:38.171Z,1.20
2019-02-12T05:16:43.808Z,1.30
2019-02-12T05:17:51.056Z,1.30
2019-02-12T05:18:55.951Z,1.20
2019-02-12T05:20:00.409Z,1.20
2019-02-12T05:21:09.197Z,1.20
2019-02-12T05:22:13.910Z,1.20
2019-02-12T05:23:18.257Z,1.20
2019-02-12T05:24:27.148Z,1.20
2019-02-12T05:25:35.365Z,1.20
2019-02-12T05:26:39.503Z,1.20
2019-02-12T05:27:50.787Z,1.20
2019-02-12T05:29:00.237Z,1.30
2019-02-12T05:30:04.982Z,1.30
2019-02-12T05:31:11.608Z,1.30
2019-02-12T05:32:15.924Z,1.30
2019-02-12T05:33:23.736Z,1.30
2019-02-12T05:34:34.426Z,1.30
2019-02-12T05:35:38.852Z,1.20
2019-02-12T05:36:47.218Z,1.20
2019-02-12T05:37:56.659Z,1.20
2019-02-12T05:39:02.723Z,1.20
2019-02-12T05:40:09.093Z,1.10
2019-02-12T05:41:19.340Z,1.20
2019-02-12T05:42:21.439Z,1.20
2019-02-12T05:43:27.017Z,1.20
2019-02-12T05:44:33.550Z,1.20
2019-02-12T05:45:40.200Z,1.30
2019-02-12T05:46:46.363Z,1.30
2019-02-12T05:47:54.111Z,1.30
2019-02-12T05:48:58.864Z,1.30
2019-02-12T05:50:03.386Z,1.20
2019-02-12T05:51:10.036Z,1.30
2019-02-12T05:52:18.760Z,1.30
2019-02-12T05:53:22.875Z,1.30
2019-02-12T05:54:29.027Z,1.30
2019-02-12T05:55:33.434Z,1.30
2019-02-12T05:56:37.838Z,1.20
2019-02-12T05:57:45.495Z,1.20
2019-02-12T05:58:55.024Z,1.20
2019-02-12T05:59:59.525Z,1.20
2019-02-12T06:01:07.497Z,1.20
2019-02-12T06:02:16.357Z,1.20
2019-02-12T06:03:21.840Z,1.10
2019-02-12T06:04:29.777Z,1.10
2019-02-12T06:05:32.580Z,1.10
2019-02-12T06:06:38.143Z,1.10
2019-02-12T06:07:44.819Z,1.10
2019-02-12T06:08:52.068Z,1.10
2019-02-12T06:09:58.489Z,1.10
2019-02-12T06:11:03.042Z,1.10
2019-02-12T06:12:08.655Z,1.10
2019-02-12T06:13:13.239Z,1.10
2019-02-12T06:14:20.369Z,1.10
2019-02-12T06:15:25.110Z,1.20
2019-02-12T06:16:35.660Z,1.20
2019-02-12T06:17:40.321Z,1.20
2019-02-12T06:18:48.041Z,1.30
2019-02-12T06:19:54.532Z,1.30
2019-02-12T06:21:02.014Z,1.30
2019-02-12T06:22:06.597Z,1.30
2019-02-12T06:23:15.025Z,1.30
2019-02-12T06:24:19.450Z,1.30
2019-02-12T06:25:25.490Z,1.30
2019-02-12T06:26:33.111Z,1.30
2019-02-12T06:27:37.627Z,1.30
2019-02-12T06:28:42.031Z,1.30
2019-02-12T06:29:51.481Z,1.30
2019-02-12T06:30:55.939Z,1.30
2019-02-12T06:32:01.717Z,1.30
2019-02-12T06:33:07.827Z,1.40
2019-02-12T06:34:13.644Z,1.40
2019-02-12T06:35:20.647Z,1.40
2019-02-12T06:36:28.290Z,1.40
2019-02-12T06:37:33.709Z,1.30
2019-02-12T06:38:38.108Z,1.30
2019-02-12T06:39:44.576Z,1.40
2019-02-12T06:40:49.225Z,1.30
2019-02-12T06:41:54.998Z,1.30
2019-02-12T06:42:59.458Z,1.30
2019-02-12T06:44:05.744Z,1.40
2019-02-12T06:45:10.343Z,1.30
2019-02-12T06:46:14.967Z,1.40
2019-02-12T06:47:19.417Z,1.40
2019-02-12T06:48:30.110Z,1.30
2019-02-12T06:49:38.154Z,1.40
2019-02-12T06:50:43.096Z,1.40
2019-02-12T06:51:53.371Z,1.40
2019-02-12T06:52:58.144Z,1.40
2019-02-12T06:54:08.022Z,1.40
2019-02-12T06:55:13.847Z,1.40
2019-02-12T06:56:19.343Z,1.40
2019-02-12T06:57:24.094Z,1.50
2019-02-12T06:58:39.388Z,1.40
2019-02-12T06:59:43.749Z,1.50
2019-02-12T07:00:48.233Z,1.50
2019-02-12T07:02:14.980Z,1.50
2019-02-12T07:03:21.685Z,1.60
2019-02-12T07:04:29.319Z,1.60
2019-02-12T07:05:36.680Z,1.70
2019-02-12T07:07:12.632Z,1.70
2019-02-12T07:08:38.257Z,1.70
2019-02-12T07:09:55.574Z,1.80
2019-02-12T07:11:07.767Z,1.80
2019-02-12T07:12:58.884Z,1.80
2019-02-12T07:14:20.268Z,1.90
2019-02-12T07:16:13.165Z,2.00
2019-02-12T07:17:54.134Z,2.10
2019-02-12T07:19:43.821Z,2.20
2019-02-12T07:21:18.775Z,2.30
2019-02-12T07:23:21.319Z,2.30
2019-02-12T07:25:16.953Z,2.40
2019-02-12T07:26:52.355Z,2.50
2019-02-12T07:28:23.112Z,2.60
2019-02-12T07:29:53.544Z,2.70
2019-02-12T07:31:40.180Z,2.80
2019-02-12T07:33:27.110Z,2.90
2019-02-12T07:34:43.616Z,3.00
2019-02-12T07:36:29.638Z,3.00
2019-02-12T07:38:18.482Z,3.10
2019-02-12T07:39:53.393Z,3.10
2019-02-12T07:41:25.912Z,3.10
2019-02-12T07:43:00.497Z,3.10
2019-02-12T07:44:54.623Z,3.10
2019-02-12T07:46:35.526Z,3.10
2019-02-12T07:48:17.105Z,3.20
2019-02-12T07:49:59.661Z,3.30
2019-02-12T07:51:44.943Z,3.40
2019-02-12T07:53:19.894Z,3.40
2019-02-12T07:54:54.077Z,3.40
2019-02-12T07:56:51.321Z,3.50
2019-02-12T07:58:33.307Z,3.60
2019-02-12T08:00:19.774Z,3.70
2019-02-12T08:02:15.714Z,3.90
2019-02-12T08:03:56.252Z,4.10
2019-02-12T08:05:41.182Z,4.30
2019-02-12T08:07:19.261Z,4.50
2019-02-12T08:09:04.442Z,4.60
2019-02-12T08:10:55.404Z,4.70
2019-02-12T08:12:52.965Z,4.90
2019-02-12T08:14:37.955Z,5.00
2019-02-12T08:16:13.170Z,5.10
2019-02-12T08:17:33.455Z,5.10
2019-02-12T08:19:08.689Z,5.10
2019-02-12T08:21:01.766Z,5.10
2019-02-12T08:23:05.092Z,5.00
2019-02-12T08:24:22.418Z,5.00
2019-02-12T08:26:01.141Z,4.90
2019-02-12T08:27:52.783Z,4.80
2019-02-12T08:29:26.485Z,4.80
2019-02-12T08:31:03.929Z,4.80
2019-02-12T08:32:47.176Z,4.70
2019-02-12T08:34:20.530Z,4.70
2019-02-12T08:35:57.493Z,4.70
2019-02-12T08:37:46.592Z,4.70
2019-02-12T08:39:28.335Z,4.70
2019-02-12T08:40:48.057Z,4.70
2019-02-12T08:42:15.029Z,4.80
2019-02-12T08:43:49.098Z,4.80
2019-02-12T08:45:28.401Z,4.80
2019-02-12T08:46:53.307Z,4.90
2019-02-12T08:48:20.045Z,4.90
2019-02-12T08:49:54.616Z,5.00
2019-02-12T08:51:23.153Z,5.10
2019-02-12T08:53:12.837Z,5.10
2019-02-12T08:55:04.071Z,5.20
2019-02-12T08:56:34.698Z,5.40
2019-02-12T08:58:06.976Z,5.50
2019-02-12T08:59:36.892Z,5.60
2019-02-12T09:01:30.047Z,5.60
2019-02-12T09:03:17.004Z,5.60
2019-02-12T09:04:52.513Z,5.60
2019-02-12T09:06:27.624Z,5.60
2019-02-12T09:08:05.506Z,5.60
2019-02-12T09:09:46.994Z,5.70
2019-02-12T09:11:04.756Z,5.70
2019-02-12T09:13:02.146Z,5.70
2019-02-12T09:14:23.657Z,5.70
2019-02-12T09:16:16.605Z,5.70
2019-02-12T09:18:06.883Z,5.70
2019-02-12T09:20:04.707Z,5.70
2019-02-12T09:21:31.844Z,5.60
2019-02-12T09:23:12.120Z,5.60
2019-02-12T09:24:51.574Z,5.70
2019-02-12T09:26:07.365Z,5.70
2019-02-12T09:27:43.467Z,5.80
2019-02-12T09:29:34.676Z,5.90
2019-02-12T09:31:14.114Z,5.90
2019-02-12T09:32:48.897Z,6.00
2019-02-12T09:34:27.633Z,6.20
2019-02-12T09:35:57.274Z,6.30
2019-02-12T09:37:57.883Z,6.40
2019-02-12T09:40:07.780Z,6.50
2019-02-12T09:41:52.043Z,6.70
2019-02-12T09:43:11.580Z,6.80
2019-02-12T09:45:15.323Z,6.80
2019-02-12T09:46:47.277Z,6.80
2019-02-12T09:48:19.683Z,6.90
2019-02-12T09:49:56.458Z,6.90
2019-02-12T09:51:42.197Z,6.90
2019-02-12T09:53:36.007Z,6.90
2019-02-12T09:55:00.315Z,6.90
2019-02-12T09:57:07.282Z,6.90
2019-02-12T09:58:47.599Z,6.90
2019-02-12T10:00:28.583Z,7.00
2019-02-12T10:02:14.323Z,6.90
2019-02-12T10:03:46.136Z,7.00
2019-02-12T10:05:24.284Z,6.90
2019-02-12T10:07:06.205Z,6.80
2019-02-12T10:09:09.874Z,6.80
2019-02-12T10:10:38.172Z,6.70
2019-02-12T10:11:59.799Z,6.50
2019-02-12T10:13:33.249Z,6.50
2019-02-12T10:14:55.464Z,6.40
2019-02-12T10:16:38.486Z,6.40
2019-02-12T10:18:09.162Z,6.30
2019-02-12T10:20:03.789Z,6.40
2019-02-12T10:21:38.651Z,6.40
2019-02-12T10:23:01.804Z,6.50
2019-02-12T10:24:31.081Z,6.60
2019-02-12T10:25:39.018Z,6.80
2019-02-12T10:26:47.808Z,7.00
2019-02-12T10:28:19.173Z,7.10
2019-02-12T10:29:54.288Z,7.20
2019-02-12T10:31:25.604Z,7.20
2019-02-12T10:32:28.628Z,7.20
2019-02-12T10:33:33.805Z,7.10
2019-02-12T10:34:39.020Z,7.20
2019-02-12T10:35:43.873Z,7.20
2019-02-12T10:36:49.250Z,7.20
2019-02-12T10:37:54.468Z,7.20
2019-02-12T10:38:59.549Z,7.30
2019-02-12T10:40:04.714Z,7.30
2019-02-12T10:41:10.007Z,7.30
2019-02-12T10:42:15.134Z,7.30
2019-02-12T10:43:19.995Z,7.30
2019-02-12T10:44:25.201Z,7.30
2019-02-12T10:45:30.661Z,7.30
2019-02-12T10:46:35.551Z,7.40
2019-02-12T10:47:40.609Z,7.40
2019-02-12T10:48:45.562Z,7.50
2019-02-12T10:49:50.645Z,7.60
2019-02-12T10:50:55.588Z,7.70
2019-02-12T10:52:00.497Z,7.70
2019-02-12T10:53:05.458Z,7.70
2019-02-12T10:54:13.063Z,7.80
2019-02-12T10:55:17.040Z,7.80
2019-02-12T10:56:23.090Z,7.70
2019-02-12T10:57:28.056Z,7.80
2019-02-12T10:58:33.140Z,7.80
2019-02-12T10:59:38.400Z,7.80
2019-02-12T11:00:43.435Z,7.80
2019-02-12T11:01:48.245Z,7.90
2019-02-12T11:02:53.266Z,7.90
2019-02-12T11:03:58.615Z,7.90
2019-02-12T11:05:04.280Z,7.90
2019-02-12T11:06:09.595Z,8.00
2019-02-12T11:07:14.949Z,8.10
2019-02-12T11:08:19.934Z,8.10
2019-02-12T11:09:25.305Z,8.20
2019-02-12T11:10:30.463Z,8.30
2019-02-12T11:11:35.428Z,8.50
2019-02-12T11:12:40.711Z,8.60
2019-02-12T11:13:45.678Z,8.70
2019-02-12T11:14:50.886Z,8.70
2019-02-12T11:15:55.822Z,8.70
2019-02-12T11:17:01.391Z,8.90
2019-02-12T11:18:06.587Z,8.90
2019-02-12T11:19:11.393Z,8.90
2019-02-12T11:20:16.729Z,8.90
2019-02-12T11:21:22.045Z,8.90
2019-02-12T11:22:27.394Z,8.90
2019-02-12T11:23:32.704Z,8.90
2019-02-12T11:24:38.212Z,8.90
2019-02-12T11:25:43.248Z,8.90
2019-02-12T11:26:48.106Z,8.80
2019-02-12T11:27:52.959Z,8.90
2019-02-12T11:28:57.883Z,8.90
2019-02-12T11:30:02.750Z,8.90
2019-02-12T11:31:08.047Z,8.90
2019-02-12T11:32:13.337Z,9.00
2019-02-12T11:33:18.428Z,9.00
2019-02-12T11:34:24.084Z,9.10
2019-02-12T11:35:29.977Z,9.10
2019-02-12T11:36:35.872Z,9.10
2019-02-12T11:37:41.092Z,9.20
2019-02-12T11:38:46.071Z,9.20
2019-02-12T11:39:51.186Z,9.20
2019-02-12T11:40:56.077Z,9.10
2019-02-12T11:42:02.492Z,9.00
2019-02-12T11:43:07.536Z,8.80
2019-02-12T11:44:12.977Z,8.80
2019-02-12T11:45:18.023Z,8.70
2019-02-12T11:46:22.930Z,8.70
2019-02-12T11:47:27.866Z,8.70
2019-02-12T11:48:32.807Z,8.70
2019-02-12T11:49:37.871Z,8.60
2019-02-12T11:50:42.993Z,8.60
2019-02-12T11:51:48.146Z,8.70
2019-02-12T11:52:53.116Z,8.70
2019-02-12T11:53:58.308Z,8.70
2019-02-12T11:55:03.651Z,8.70
2019-02-12T11:56:08.505Z,8.70
2019-02-12T11:57:13.683Z,8.70
2019-02-12T11:58:18.647Z,8.80
2019-02-12T11:59:23.554Z,8.80
2019-02-12T12:00:33.911Z,8.80
2019-02-12T12:01:38.840Z,8.80
2019-02-12T12:02:44.048Z,8.80
2019-02-12T12:03:48.919Z,8.90
2019-02-12T12:04:53.738Z,8.90
2019-02-12T12:05:59.511Z,9.00
2019-02-12T12:07:05.201Z,9.00
2019-02-12T12:08:10.293Z,9.00
2019-02-12T12:09:16.262Z,9.10
2019-02-12T12:10:21.195Z,9.20
2019-02-12T12:11:26.101Z,9.30
2019-02-12T12:12:31.016Z,9.40
2019-02-12T12:13:35.962Z,9.40
2019-02-12T12:14:41.352Z,9.50
2019-02-12T12:15:46.272Z,9.60
2019-02-12T12:16:51.267Z,9.60
2019-02-12T12:17:56.295Z,9.70
2019-02-12T12:19:02.217Z,9.70
2019-02-12T12:20:08.094Z,9.80
2019-02-12T12:21:13.323Z,9.70
2019-02-12T12:22:18.274Z,9.70
2019-02-12T12:23:23.736Z,9.60
2019-02-12T12:24:30.221Z,9.60
2019-02-12T12:25:36.291Z,9.50
2019-02-12T12:26:41.827Z,9.50
2019-02-12T12:27:47.680Z,9.40
2019-02-12T12:28:53.329Z,9.40
2019-02-12T12:30:00.545Z,9.40
2019-02-12T12:31:08.522Z,9.50
2019-02-12T12:32:14.143Z,9.50
2019-02-12T12:33:19.934Z,9.60
2019-02-12T12:34:28.686Z,9.50
2019-02-12T12:35:35.156Z,9.50
2019-02-12T12:36:47.291Z,9.50
2019-02-12T12:38:04.039Z,9.50
2019-02-12T12:39:17.001Z,9.30
2019-02-12T12:40:22.305Z,9.30
2019-02-12T12:41:27.318Z,9.30
2019-02-12T12:42:32.533Z,9.30
2019-02-12T12:43:37.533Z,9.30
2019-02-12T12:44:42.647Z,9.30
2019-02-12T12:45:47.910Z,9.40
2019-02-12T12:46:58.889Z,9.40
2019-02-12T12:48:04.151Z,9.40
2019-02-12T12:49:09.094Z,9.50
2019-02-12T12:50:14.853Z,9.50
2019-02-12T12:51:20.287Z,9.50
2019-02-12T12:52:25.138Z,9.60
2019-02-12T12:53:30.207Z,9.60
2019-02-12T12:54:36.075Z,9.60
2019-02-12T12:55:41.244Z,9.60
2019-02-12T12:56:46.533Z,9.50
2019-02-12T12:57:51.664Z,9.60
2019-02-12T12:58:56.914Z,9.50
2019-02-12T13:00:01.946Z,9.50
2019-02-12T13:01:07.150Z,9.50
2019-02-12T13:02:12.300Z,9.40
2019-02-12T13:03:17.457Z,9.40
2019-02-12T13:04:22.292Z,9.40
2019-02-12T13:05:27.328Z,9.40
2019-02-12T13:06:32.472Z,9.30
2019-02-12T13:07:37.422Z,9.10
2019-02-12T13:08:43.417Z,9.10
2019-02-12T13:09:52.930Z,9.10
2019-02-12T13:10:59.257Z,9.10
2019-02-12T13:12:05.766Z,9.10
2019-02-12T13:13:14.224Z,9.20
2019-02-12T13:14:20.122Z,9.20
2019-02-12T13:15:25.968Z,9.20
2019-02-12T13:16:32.808Z,9.20
2019-02-12T13:17:37.925Z,9.20
2019-02-12T13:18:43.081Z,9.20
2019-02-12T13:19:48.616Z,9.30
2019-02-12T13:20:54.467Z,9.20
2019-02-12T13:21:59.332Z,9.30
2019-02-12T13:23:04.947Z,9.30
2019-02-12T13:24:09.759Z,9.30
2019-02-12T13:25:16.948Z,9.20
2019-02-12T13:26:21.891Z,9.20
2019-02-12T13:27:27.258Z,9.20
2019-02-12T13:28:32.954Z,9.10
2019-02-12T13:29:37.912Z,9.10
2019-02-12T13:30:43.107Z,9.10
2019-02-12T13:31:48.246Z,9.10
2019-02-12T13:32:53.756Z,9.10
2019-02-12T13:33:59.953Z,9.20
2019-02-12T13:35:08.599Z,9.20
2019-02-12T13:36:15.156Z,9.30
2019-02-12T13:37:21.134Z,9.40
2019-02-12T13:38:26.344Z,9.50
2019-02-12T13:39:31.737Z,9.60
2019-02-12T13:40:37.988Z,9.70
2019-02-12T13:41:42.752Z,9.70
2019-02-12T13:42:47.876Z,9.80
2019-02-12T13:43:53.076Z,9.70
2019-02-12T13:44:57.958Z,9.70
2019-02-12T13:46:03.173Z,9.80
2019-02-12T13:47:08.093Z,9.80
2019-02-12T13:48:13.224Z,9.70
2019-02-12T13:49:18.559Z,9.80
2019-02-12T13:50:23.482Z,9.80
2019-02-12T13:51:28.497Z,9.80
2019-02-12T13:52:33.534Z,9.80
2019-02-12T13:53:38.524Z,9.80
2019-02-12T13:54:43.348Z,9.80
2019-02-12T13:55:48.220Z,9.80
2019-02-12T13:56:53.465Z,9.80
2019-02-12T13:57:58.195Z,9.80
2019-02-12T13:59:06.026Z,9.90
2019-02-12T14:00:12.885Z,9.90
2019-02-12T14:01:18.512Z,9.90
2019-02-12T14:02:23.791Z,9.90
2019-02-12T14:03:28.936Z,9.80
2019-02-12T14:04:34.313Z,9.80
2019-02-12T14:05:42.008Z,9.70
2019-02-12T14:06:46.156Z,9.70
2019-02-12T14:07:51.277Z,9.70
2019-02-12T14:08:56.218Z,9.70
2019-02-12T14:10:01.296Z,9.60
2019-02-12T14:11:06.595Z,9.60
2019-02-12T14:12:11.862Z,9.60
2019-02-12T14:13:18.210Z,9.60
2019-02-12T14:14:23.212Z,9.50
2019-02-12T14:15:28.021Z,9.60
2019-02-12T14:16:33.195Z,9.50
2019-02-12T14:17:38.484Z,9.50
2019-02-12T14:18:43.692Z,9.40
2019-02-12T14:19:49.134Z,9.40
2019-02-12T14:20:54.218Z,9.30
2019-02-12T14:21:59.119Z,9.30
2019-02-12T14:23:04.739Z,9.30
2019-02-12T14:24:09.734Z,9.20
2019-02-12T14:25:16.094Z,9.30
2019-02-12T14:26:21.331Z,9.10
2019-02-12T14:27:26.652Z,9.40
2019-02-12T14:28:32.419Z,9.30
2019-02-12T14:29:39.425Z,9.30
2019-02-12T14:30:44.837Z,9.30
2019-02-12T14:31:53.068Z,9.30
2019-02-12T14:32:56.753Z,9.30
2019-02-12T14:34:02.057Z,9.30
2019-02-12T14:35:08.018Z,9.30
2019-02-12T14:36:13.560Z,9.30
2019-02-12T14:37:18.967Z,9.30
2019-02-12T14:38:24.125Z,9.40
2019-02-12T14:39:29.196Z,9.30
2019-02-12T14:40:34.380Z,9.20
2019-02-12T14:41:39.566Z,9.20
2019-02-12T14:42:44.737Z,9.30
2019-02-12T14:43:49.721Z,9.30
2019-02-12T14:44:55.472Z,9.30
2019-02-12T14:46:19.001Z,9.30
2019-02-12T14:47:23.518Z,9.20
2019-02-12T14:48:28.101Z,9.20
2019-02-12T14:49:32.493Z,9.20
2019-02-12T14:50:36.888Z,9.20
2019-02-12T14:51:41.330Z,9.10
2019-02-12T14:52:45.825Z,9.10
2019-02-12T14:53:50.311Z,9.10
2019-02-12T14:54:54.707Z,9.00
2019-02-12T14:55:59.236Z,9.00
2019-02-12T14:57:06.366Z,8.90
2019-02-12T14:58:10.987Z,8.90
2019-02-12T14:59:15.581Z,8.80
2019-02-12T15:00:20.052Z,8.80
2019-02-12T15:01:24.591Z,8.90
2019-02-12T15:02:29.119Z,8.90
2019-02-12T15:03:33.641Z,8.90
2019-02-12T15:04:38.064Z,8.90
2019-02-12T15:05:42.474Z,8.90
2019-02-12T15:06:46.918Z,8.90
2019-02-12T15:07:51.295Z,8.80
2019-02-12T15:08:55.673Z,8.80
2019-02-12T15:10:00.153Z,8.80
2019-02-12T15:11:07.512Z,8.80
2019-02-12T15:12:12.056Z,8.80
2019-02-12T15:13:16.512Z,8.70
2019-02-12T15:14:21.101Z,8.70
2019-02-12T15:15:25.606Z,8.70
2019-02-12T15:16:30.282Z,8.70
2019-02-12T15:17:34.839Z,8.70
2019-02-12T15:18:39.224Z,8.70
2019-02-12T15:19:43.725Z,8.60
2019-02-12T15:20:48.109Z,8.60
2019-02-12T15:21:52.491Z,8.60
2019-02-12T15:22:56.864Z,8.50
2019-02-12T15:24:01.267Z,8.50
2019-02-12T15:25:09.493Z,8.60
2019-02-12T15:26:13.917Z,8.50
2019-02-12T15:27:18.318Z,8.50
2019-02-12T15:28:22.711Z,8.50
2019-02-12T15:29:27.117Z,8.40
2019-02-12T15:30:34.837Z,8.40
2019-02-12T15:31:39.758Z,8.40
2019-02-12T15:32:44.176Z,8.30
2019-02-12T15:33:48.671Z,8.30
2019-02-12T15:34:53.175Z,8.20
2019-02-12T15:35:57.677Z,8.20
2019-02-12T15:37:02.128Z,8.20
2019-02-12T15:38:06.540Z,8.10
2019-02-12T15:39:11.081Z,8.10
2019-02-12T15:40:15.919Z,8.00
2019-02-12T15:41:20.451Z,7.90
2019-02-12T15:42:24.983Z,7.90
2019-02-12T15:43:29.481Z,7.90
2019-02-12T15:44:36.336Z,7.80
2019-02-12T15:45:40.777Z,7.70
2019-02-12T15:46:45.194Z,7.60
2019-02-12T15:47:49.621Z,7.60
2019-02-12T15:48:54.068Z,7.60